sensor_id;sensor_type;location;lat;lon;timestamp;P1;durP1;ratioP1;P2;durP2;ratioP2
21233;SDS011;10774;42.178;26.578;2022-11-21T00:00:53;22.75;;;4.47;;
21233;SDS011;10774;42.178;26.578;2022-11-21T00:03:19;20.48;;;4.28;;
21233;SDS011;10774;42.178;26.578;2022-11-21T00:05:45;27.02;;;4.60;;
21233;SDS011;10774;42.178;26.578;2022-11-21T00:08:13;31.83;;;5.38;;
21233;SDS011;10774;42.178;26.578;2022-11-21T00:10:42;27.83;;;5.47;;
21233;SDS011;10774;42.178;26.578;2022-11-21T00:13:13;25.83;;;4.20;;
21233;SDS011;10774;42.178;26.578;2022-11-21T00:15:40;23.25;;;4.80;;
21233;SDS011;10774;42.178;26.578;2022-11-21T00:18:05;26.23;;;4.97;;
21233;SDS011;10774;42.178;26.578;2022-11-21T00:20:31;26.38;;;4.97;;
21233;SDS011;10774;42.178;26.578;2022-11-21T00:22:56;24.73;;;4.85;;
21233;SDS011;10774;42.178;26.578;2022-11-21T00:25:22;23.65;;;5.43;;
21233;SDS011;10774;42.178;26.578;2022-11-21T00:27:47;24.52;;;5.10;;
21233;SDS011;10774;42.178;26.578;2022-11-21T00:30:13;23.83;;;5.10;;
21233;SDS011;10774;42.178;26.578;2022-11-21T00:32:38;27.73;;;5.70;;
21233;SDS011;10774;42.178;26.578;2022-11-21T00:35:04;22.98;;;4.47;;
21233;SDS011;10774;42.178;26.578;2022-11-21T00:37:31;26.67;;;5.13;;
21233;SDS011;10774;42.178;26.578;2022-11-21T00:39:57;23.23;;;5.28;;
21233;SDS011;10774;42.178;26.578;2022-11-21T00:42:23;22.98;;;4.80;;
21233;SDS011;10774;42.178;26.578;2022-11-21T00:44:48;24.92;;;5.45;;
21233;SDS011;10774;42.178;26.578;2022-11-21T00:47:14;20.83;;;5.20;;
21233;SDS011;10774;42.178;26.578;2022-11-21T00:49:39;17.48;;;5.35;;
21233;SDS011;10774;42.178;26.578;2022-11-21T00:52:05;32.58;;;5.20;;
21233;SDS011;10774;42.178;26.578;2022-11-21T00:54:30;26.60;;;4.13;;
21233;SDS011;10774;42.178;26.578;2022-11-21T00:56:56;28.23;;;6.00;;
21233;SDS011;10774;42.178;26.578;2022-11-21T00:59:21;26.80;;;4.82;;
21233;SDS011;10774;42.178;26.578;2022-11-21T01:01:46;28.42;;;5.30;;
21233;SDS011;10774;42.178;26.578;2022-11-21T01:04:12;23.33;;;4.97;;
21233;SDS011;10774;42.178;26.578;2022-11-21T01:06:37;31.98;;;5.70;;
21233;SDS011;10774;42.178;26.578;2022-11-21T01:09:03;30.83;;;6.03;;
21233;SDS011;10774;42.178;26.578;2022-11-21T01:11:28;27.67;;;5.15;;
21233;SDS011;10774;42.178;26.578;2022-11-21T01:13:54;22.48;;;5.13;;
21233;SDS011;10774;42.178;26.578;2022-11-21T01:16:21;19.65;;;4.53;;
21233;SDS011;10774;42.178;26.578;2022-11-21T01:18:48;24.42;;;4.72;;
21233;SDS011;10774;42.178;26.578;2022-11-21T01:21:21;22.52;;;4.63;;
21233;SDS011;10774;42.178;26.578;2022-11-21T01:23:48;21.40;;;5.40;;
21233;SDS011;10774;42.178;26.578;2022-11-21T01:26:15;24.15;;;5.65;;
21233;SDS011;10774;42.178;26.578;2022-11-21T01:28:42;28.10;;;5.95;;
21233;SDS011;10774;42.178;26.578;2022-11-21T01:31:08;26.98;;;5.25;;
21233;SDS011;10774;42.178;26.578;2022-11-21T01:33:39;28.48;;;5.00;;
21233;SDS011;10774;42.178;26.578;2022-11-21T01:36:11;32.05;;;5.72;;
21233;SDS011;10774;42.178;26.578;2022-11-21T01:38:39;25.65;;;5.63;;
21233;SDS011;10774;42.178;26.578;2022-11-21T01:41:06;24.40;;;5.00;;
21233;SDS011;10774;42.178;26.578;2022-11-21T01:43:32;21.95;;;4.90;;
21233;SDS011;10774;42.178;26.578;2022-11-21T01:45:59;26.73;;;5.97;;
21233;SDS011;10774;42.178;26.578;2022-11-21T01:51:10;23.70;;;5.28;;
21233;SDS011;10774;42.178;26.578;2022-11-21T01:53:44;23.20;;;5.22;;
21233;SDS011;10774;42.178;26.578;2022-11-21T01:56:13;23.35;;;4.85;;
21233;SDS011;10774;42.178;26.578;2022-11-21T01:58:39;29.05;;;5.20;;
21233;SDS011;10774;42.178;26.578;2022-11-21T02:01:06;23.90;;;5.38;;
21233;SDS011;10774;42.178;26.578;2022-11-21T02:03:32;26.48;;;5.15;;
21233;SDS011;10774;42.178;26.578;2022-11-21T02:06:02;29.08;;;4.88;;
21233;SDS011;10774;42.178;26.578;2022-11-21T02:08:29;27.13;;;5.35;;
21233;SDS011;10774;42.178;26.578;2022-11-21T02:13:41;25.77;;;4.68;;
21233;SDS011;10774;42.178;26.578;2022-11-21T02:16:07;25.50;;;5.10;;
21233;SDS011;10774;42.178;26.578;2022-11-21T02:18:33;24.60;;;4.68;;
21233;SDS011;10774;42.178;26.578;2022-11-21T02:21:00;28.52;;;5.35;;
21233;SDS011;10774;42.178;26.578;2022-11-21T02:26:04;20.38;;;5.03;;
21233;SDS011;10774;42.178;26.578;2022-11-21T02:28:29;24.02;;;5.38;;
21233;SDS011;10774;42.178;26.578;2022-11-21T02:30:55;26.05;;;5.15;;
21233;SDS011;10774;42.178;26.578;2022-11-21T02:33:21;23.23;;;5.28;;
21233;SDS011;10774;42.178;26.578;2022-11-21T02:35:56;28.13;;;5.70;;
21233;SDS011;10774;42.178;26.578;2022-11-21T02:38:24;29.30;;;5.60;;
21233;SDS011;10774;42.178;26.578;2022-11-21T02:41:15;32.72;;;5.55;;
21233;SDS011;10774;42.178;26.578;2022-11-21T02:43:51;28.38;;;5.20;;
21233;SDS011;10774;42.178;26.578;2022-11-21T02:46:49;22.98;;;4.88;;
21233;SDS011;10774;42.178;26.578;2022-11-21T02:49:18;30.83;;;4.88;;
21233;SDS011;10774;42.178;26.578;2022-11-21T02:51:51;27.80;;;5.32;;
21233;SDS011;10774;42.178;26.578;2022-11-21T02:54:17;26.27;;;5.47;;
21233;SDS011;10774;42.178;26.578;2022-11-21T02:56:42;26.00;;;4.88;;
21233;SDS011;10774;42.178;26.578;2022-11-21T02:59:07;33.08;;;4.70;;
21233;SDS011;10774;42.178;26.578;2022-11-21T03:01:33;30.33;;;5.32;;
21233;SDS011;10774;42.178;26.578;2022-11-21T03:03:58;27.17;;;5.13;;
21233;SDS011;10774;42.178;26.578;2022-11-21T03:06:24;29.67;;;6.03;;
21233;SDS011;10774;42.178;26.578;2022-11-21T03:08:49;24.45;;;4.93;;
21233;SDS011;10774;42.178;26.578;2022-11-21T03:11:14;28.65;;;5.55;;
21233;SDS011;10774;42.178;26.578;2022-11-21T03:13:40;29.95;;;5.85;;
21233;SDS011;10774;42.178;26.578;2022-11-21T03:16:05;32.70;;;5.18;;
21233;SDS011;10774;42.178;26.578;2022-11-21T03:18:31;28.58;;;5.07;;
21233;SDS011;10774;42.178;26.578;2022-11-21T03:20:56;29.92;;;5.47;;
21233;SDS011;10774;42.178;26.578;2022-11-21T03:23:22;23.40;;;5.60;;
21233;SDS011;10774;42.178;26.578;2022-11-21T03:25:47;28.23;;;6.22;;
21233;SDS011;10774;42.178;26.578;2022-11-21T03:28:12;31.27;;;6.07;;
21233;SDS011;10774;42.178;26.578;2022-11-21T03:30:38;33.53;;;5.40;;
21233;SDS011;10774;42.178;26.578;2022-11-21T03:33:03;25.17;;;5.53;;
21233;SDS011;10774;42.178;26.578;2022-11-21T03:35:29;29.45;;;6.00;;
21233;SDS011;10774;42.178;26.578;2022-11-21T03:37:54;36.70;;;5.57;;
21233;SDS011;10774;42.178;26.578;2022-11-21T03:40:19;35.10;;;5.47;;
21233;SDS011;10774;42.178;26.578;2022-11-21T03:42:45;32.33;;;5.80;;
21233;SDS011;10774;42.178;26.578;2022-11-21T03:45:10;26.55;;;5.50;;
21233;SDS011;10774;42.178;26.578;2022-11-21T03:47:36;31.23;;;5.57;;
21233;SDS011;10774;42.178;26.578;2022-11-21T03:50:01;44.45;;;7.07;;
21233;SDS011;10774;42.178;26.578;2022-11-21T03:52:27;36.55;;;5.82;;
21233;SDS011;10774;42.178;26.578;2022-11-21T03:54:52;36.88;;;6.93;;
21233;SDS011;10774;42.178;26.578;2022-11-21T03:57:18;35.90;;;6.50;;
21233;SDS011;10774;42.178;26.578;2022-11-21T03:59:43;30.25;;;5.70;;
21233;SDS011;10774;42.178;26.578;2022-11-21T04:02:08;33.72;;;5.82;;
21233;SDS011;10774;42.178;26.578;2022-11-21T04:04:34;29.65;;;6.25;;
21233;SDS011;10774;42.178;26.578;2022-11-21T04:06:59;28.25;;;5.47;;
21233;SDS011;10774;42.178;26.578;2022-11-21T04:09:25;37.83;;;6.65;;
21233;SDS011;10774;42.178;26.578;2022-11-21T04:11:50;35.92;;;6.47;;
21233;SDS011;10774;42.178;26.578;2022-11-21T04:14:15;27.45;;;6.20;;
21233;SDS011;10774;42.178;26.578;2022-11-21T04:16:41;37.00;;;7.15;;
21233;SDS011;10774;42.178;26.578;2022-11-21T04:19:06;37.25;;;7.43;;
21233;SDS011;10774;42.178;26.578;2022-11-21T04:21:31;34.28;;;7.55;;
21233;SDS011;10774;42.178;26.578;2022-11-21T04:23:57;41.22;;;6.38;;
21233;SDS011;10774;42.178;26.578;2022-11-21T04:26:22;35.15;;;5.88;;
21233;SDS011;10774;42.178;26.578;2022-11-21T04:28:48;31.45;;;6.13;;
21233;SDS011;10774;42.178;26.578;2022-11-21T04:31:13;31.17;;;5.88;;
21233;SDS011;10774;42.178;26.578;2022-11-21T04:33:38;45.28;;;7.07;;
21233;SDS011;10774;42.178;26.578;2022-11-21T04:36:04;38.05;;;6.78;;
21233;SDS011;10774;42.178;26.578;2022-11-21T04:38:31;28.52;;;5.88;;
21233;SDS011;10774;42.178;26.578;2022-11-21T04:40:57;31.55;;;6.40;;
21233;SDS011;10774;42.178;26.578;2022-11-21T04:43:22;34.50;;;6.72;;
21233;SDS011;10774;42.178;26.578;2022-11-21T04:45:47;40.40;;;7.00;;
21233;SDS011;10774;42.178;26.578;2022-11-21T04:48:13;36.97;;;7.22;;
21233;SDS011;10774;42.178;26.578;2022-11-21T04:50:38;38.15;;;7.38;;
21233;SDS011;10774;42.178;26.578;2022-11-21T04:53:04;42.00;;;7.40;;
21233;SDS011;10774;42.178;26.578;2022-11-21T04:55:29;33.70;;;7.25;;
21233;SDS011;10774;42.178;26.578;2022-11-21T04:57:56;32.03;;;7.70;;
21233;SDS011;10774;42.178;26.578;2022-11-21T05:00:21;19.73;;;4.90;;
21233;SDS011;10774;42.178;26.578;2022-11-21T05:02:47;21.83;;;5.30;;
21233;SDS011;10774;42.178;26.578;2022-11-21T05:05:13;28.08;;;4.60;;
21233;SDS011;10774;42.178;26.578;2022-11-21T05:07:38;20.17;;;3.72;;
21233;SDS011;10774;42.178;26.578;2022-11-21T05:10:04;16.48;;;4.10;;
21233;SDS011;10774;42.178;26.578;2022-11-21T05:12:31;19.85;;;3.80;;
21233;SDS011;10774;42.178;26.578;2022-11-21T05:15:15;20.35;;;3.83;;
21233;SDS011;10774;42.178;26.578;2022-11-21T05:17:40;16.85;;;3.15;;
21233;SDS011;10774;42.178;26.578;2022-11-21T05:20:06;14.52;;;3.13;;
21233;SDS011;10774;42.178;26.578;2022-11-21T05:22:32;15.45;;;3.60;;
21233;SDS011;10774;42.178;26.578;2022-11-21T05:24:58;11.23;;;2.70;;
21233;SDS011;10774;42.178;26.578;2022-11-21T05:27:23;18.33;;;3.28;;
21233;SDS011;10774;42.178;26.578;2022-11-21T05:29:48;15.60;;;4.03;;
21233;SDS011;10774;42.178;26.578;2022-11-21T05:32:14;16.30;;;3.58;;
21233;SDS011;10774;42.178;26.578;2022-11-21T05:34:39;19.92;;;3.72;;
21233;SDS011;10774;42.178;26.578;2022-11-21T05:37:05;14.20;;;3.65;;
21233;SDS011;10774;42.178;26.578;2022-11-21T05:39:30;14.93;;;4.20;;
21233;SDS011;10774;42.178;26.578;2022-11-21T05:41:56;18.65;;;4.05;;
21233;SDS011;10774;42.178;26.578;2022-11-21T05:44:21;22.17;;;4.97;;
21233;SDS011;10774;42.178;26.578;2022-11-21T05:46:46;25.08;;;5.13;;
21233;SDS011;10774;42.178;26.578;2022-11-21T05:49:12;19.50;;;4.50;;
21233;SDS011;10774;42.178;26.578;2022-11-21T05:51:38;23.80;;;4.43;;
21233;SDS011;10774;42.178;26.578;2022-11-21T05:54:03;25.50;;;4.32;;
21233;SDS011;10774;42.178;26.578;2022-11-21T05:56:29;22.15;;;4.35;;
21233;SDS011;10774;42.178;26.578;2022-11-21T05:58:55;21.73;;;4.15;;
21233;SDS011;10774;42.178;26.578;2022-11-21T06:01:21;21.33;;;4.50;;
21233;SDS011;10774;42.178;26.578;2022-11-21T06:04:06;14.65;;;4.07;;
21233;SDS011;10774;42.178;26.578;2022-11-21T06:06:32;21.58;;;4.43;;
21233;SDS011;10774;42.178;26.578;2022-11-21T06:08:58;19.60;;;4.55;;
21233;SDS011;10774;42.178;26.578;2022-11-21T06:11:24;23.70;;;4.80;;
21233;SDS011;10774;42.178;26.578;2022-11-21T06:13:50;23.17;;;4.80;;
21233;SDS011;10774;42.178;26.578;2022-11-21T06:16:16;19.52;;;5.00;;
21233;SDS011;10774;42.178;26.578;2022-11-21T06:18:44;22.50;;;5.30;;
21233;SDS011;10774;42.178;26.578;2022-11-21T06:21:12;26.50;;;4.82;;
21233;SDS011;10774;42.178;26.578;2022-11-21T06:23:42;27.08;;;5.57;;
21233;SDS011;10774;42.178;26.578;2022-11-21T06:26:12;22.83;;;5.45;;
21233;SDS011;10774;42.178;26.578;2022-11-21T06:28:39;24.40;;;5.20;;
21233;SDS011;10774;42.178;26.578;2022-11-21T06:31:07;20.48;;;5.10;;
21233;SDS011;10774;42.178;26.578;2022-11-21T06:33:35;25.23;;;5.53;;
21233;SDS011;10774;42.178;26.578;2022-11-21T06:36:01;19.70;;;4.15;;
21233;SDS011;10774;42.178;26.578;2022-11-21T06:38:31;19.33;;;3.83;;
21233;SDS011;10774;42.178;26.578;2022-11-21T06:40:56;23.05;;;5.35;;
21233;SDS011;10774;42.178;26.578;2022-11-21T06:43:22;23.08;;;4.95;;
21233;SDS011;10774;42.178;26.578;2022-11-21T06:45:47;16.88;;;4.10;;
21233;SDS011;10774;42.178;26.578;2022-11-21T06:48:13;17.27;;;3.35;;
21233;SDS011;10774;42.178;26.578;2022-11-21T06:50:38;19.00;;;3.72;;
21233;SDS011;10774;42.178;26.578;2022-11-21T06:53:04;21.60;;;5.03;;
21233;SDS011;10774;42.178;26.578;2022-11-21T06:55:30;18.13;;;3.92;;
21233;SDS011;10774;42.178;26.578;2022-11-21T06:57:56;23.85;;;4.07;;
21233;SDS011;10774;42.178;26.578;2022-11-21T07:00:23;20.52;;;4.72;;
21233;SDS011;10774;42.178;26.578;2022-11-21T07:02:49;28.52;;;4.50;;
21233;SDS011;10774;42.178;26.578;2022-11-21T07:05:14;24.27;;;5.22;;
21233;SDS011;10774;42.178;26.578;2022-11-21T07:07:40;25.00;;;5.40;;
21233;SDS011;10774;42.178;26.578;2022-11-21T07:10:05;23.70;;;5.05;;
21233;SDS011;10774;42.178;26.578;2022-11-21T07:12:31;22.60;;;5.55;;
21233;SDS011;10774;42.178;26.578;2022-11-21T07:15:17;33.58;;;6.07;;
21233;SDS011;10774;42.178;26.578;2022-11-21T07:17:43;32.78;;;6.57;;
21233;SDS011;10774;42.178;26.578;2022-11-21T07:20:08;27.90;;;5.68;;
21233;SDS011;10774;42.178;26.578;2022-11-21T07:22:34;26.80;;;5.25;;
21233;SDS011;10774;42.178;26.578;2022-11-21T07:25:00;29.05;;;5.22;;
21233;SDS011;10774;42.178;26.578;2022-11-21T07:27:25;28.75;;;5.13;;
21233;SDS011;10774;42.178;26.578;2022-11-21T07:29:50;26.60;;;5.18;;
21233;SDS011;10774;42.178;26.578;2022-11-21T07:32:16;32.03;;;5.47;;
21233;SDS011;10774;42.178;26.578;2022-11-21T07:34:41;22.50;;;4.25;;
21233;SDS011;10774;42.178;26.578;2022-11-21T07:37:07;25.80;;;4.47;;
21233;SDS011;10774;42.178;26.578;2022-11-21T07:39:32;30.02;;;4.55;;
21233;SDS011;10774;42.178;26.578;2022-11-21T07:41:58;27.38;;;4.65;;
21233;SDS011;10774;42.178;26.578;2022-11-21T07:44:23;25.33;;;4.43;;
21233;SDS011;10774;42.178;26.578;2022-11-21T07:46:52;27.45;;;4.65;;
21233;SDS011;10774;42.178;26.578;2022-11-21T07:49:18;23.15;;;5.18;;
21233;SDS011;10774;42.178;26.578;2022-11-21T07:51:44;21.85;;;4.18;;
21233;SDS011;10774;42.178;26.578;2022-11-21T07:54:09;23.05;;;5.22;;
21233;SDS011;10774;42.178;26.578;2022-11-21T07:56:34;23.75;;;5.60;;
21233;SDS011;10774;42.178;26.578;2022-11-21T07:59:00;22.50;;;4.75;;
21233;SDS011;10774;42.178;26.578;2022-11-21T08:01:25;30.23;;;5.03;;
21233;SDS011;10774;42.178;26.578;2022-11-21T08:03:51;21.67;;;3.65;;
21233;SDS011;10774;42.178;26.578;2022-11-21T08:06:16;26.15;;;4.07;;
21233;SDS011;10774;42.178;26.578;2022-11-21T08:08:41;28.67;;;4.45;;
21233;SDS011;10774;42.178;26.578;2022-11-21T08:11:07;28.00;;;5.05;;
21233;SDS011;10774;42.178;26.578;2022-11-21T08:13:33;29.33;;;4.78;;
21233;SDS011;10774;42.178;26.578;2022-11-21T08:16:00;21.27;;;3.72;;
21233;SDS011;10774;42.178;26.578;2022-11-21T08:18:27;23.80;;;4.03;;
21233;SDS011;10774;42.178;26.578;2022-11-21T08:20:53;18.40;;;3.75;;
21233;SDS011;10774;42.178;26.578;2022-11-21T08:23:18;22.33;;;4.03;;
21233;SDS011;10774;42.178;26.578;2022-11-21T08:25:43;25.10;;;4.18;;
21233;SDS011;10774;42.178;26.578;2022-11-21T08:28:09;25.50;;;4.07;;
21233;SDS011;10774;42.178;26.578;2022-11-21T08:30:36;17.73;;;3.17;;
21233;SDS011;10774;42.178;26.578;2022-11-21T08:33:02;25.63;;;4.45;;
21233;SDS011;10774;42.178;26.578;2022-11-21T08:35:28;19.30;;;3.40;;
21233;SDS011;10774;42.178;26.578;2022-11-21T08:37:57;24.50;;;4.00;;
21233;SDS011;10774;42.178;26.578;2022-11-21T08:40:27;26.63;;;4.00;;
21233;SDS011;10774;42.178;26.578;2022-11-21T08:45:23;25.65;;;3.92;;
21233;SDS011;10774;42.178;26.578;2022-11-21T08:47:50;29.10;;;3.95;;
21233;SDS011;10774;42.178;26.578;2022-11-21T08:50:15;17.25;;;3.17;;
21233;SDS011;10774;42.178;26.578;2022-11-21T08:52:41;20.77;;;3.88;;
21233;SDS011;10774;42.178;26.578;2022-11-21T08:55:06;22.13;;;3.20;;
21233;SDS011;10774;42.178;26.578;2022-11-21T08:57:36;20.20;;;3.47;;
21233;SDS011;10774;42.178;26.578;2022-11-21T09:00:05;21.98;;;3.67;;
21233;SDS011;10774;42.178;26.578;2022-11-21T09:02:32;20.25;;;3.65;;
21233;SDS011;10774;42.178;26.578;2022-11-21T09:04:57;24.02;;;4.55;;
21233;SDS011;10774;42.178;26.578;2022-11-21T09:07:23;16.70;;;2.92;;
21233;SDS011;10774;42.178;26.578;2022-11-21T09:09:49;18.05;;;2.97;;
21233;SDS011;10774;42.178;26.578;2022-11-21T09:12:14;18.58;;;3.28;;
21233;SDS011;10774;42.178;26.578;2022-11-21T09:14:40;18.10;;;3.05;;
21233;SDS011;10774;42.178;26.578;2022-11-21T09:17:24;12.88;;;2.78;;
21233;SDS011;10774;42.178;26.578;2022-11-21T09:20:08;15.00;;;2.35;;
21233;SDS011;10774;42.178;26.578;2022-11-21T09:22:33;13.95;;;2.70;;
21233;SDS011;10774;42.178;26.578;2022-11-21T09:24:59;12.25;;;2.03;;
21233;SDS011;10774;42.178;26.578;2022-11-21T09:27:24;16.67;;;2.53;;
21233;SDS011;10774;42.178;26.578;2022-11-21T09:29:49;12.45;;;2.38;;
21233;SDS011;10774;42.178;26.578;2022-11-21T09:32:15;16.58;;;2.53;;
21233;SDS011;10774;42.178;26.578;2022-11-21T09:34:40;9.38;;;1.80;;
21233;SDS011;10774;42.178;26.578;2022-11-21T09:37:06;13.93;;;2.92;;
21233;SDS011;10774;42.178;26.578;2022-11-21T09:39:31;12.88;;;2.03;;
21233;SDS011;10774;42.178;26.578;2022-11-21T09:49:48;9.77;;;1.65;;
21233;SDS011;10774;42.178;26.578;2022-11-21T09:55:27;9.10;;;1.95;;
21233;SDS011;10774;42.178;26.578;2022-11-21T09:58:02;15.70;;;2.20;;
21233;SDS011;10774;42.178;26.578;2022-11-21T10:00:30;10.73;;;1.83;;
21233;SDS011;10774;42.178;26.578;2022-11-21T10:02:56;16.60;;;2.70;;
21233;SDS011;10774;42.178;26.578;2022-11-21T10:05:37;16.92;;;3.85;;
21233;SDS011;10774;42.178;26.578;2022-11-21T10:08:36;16.58;;;2.85;;
21233;SDS011;10774;42.178;26.578;2022-11-21T10:25:56;15.90;;;2.33;;
21233;SDS011;10774;42.178;26.578;2022-11-21T10:28:58;10.50;;;1.75;;
21233;SDS011;10774;42.178;26.578;2022-11-21T10:31:29;13.15;;;2.42;;
21233;SDS011;10774;42.178;26.578;2022-11-21T10:34:00;13.93;;;2.00;;
21233;SDS011;10774;42.178;26.578;2022-11-21T10:36:37;11.85;;;2.17;;
21233;SDS011;10774;42.178;26.578;2022-11-21T10:39:06;14.45;;;2.38;;
21233;SDS011;10774;42.178;26.578;2022-11-21T10:41:55;11.25;;;2.25;;
21233;SDS011;10774;42.178;26.578;2022-11-21T10:44:27;12.77;;;1.80;;
21233;SDS011;10774;42.178;26.578;2022-11-21T10:47:19;12.40;;;2.58;;
21233;SDS011;10774;42.178;26.578;2022-11-21T10:52:35;20.75;;;3.30;;
21233;SDS011;10774;42.178;26.578;2022-11-21T10:55:08;13.43;;;1.80;;
21233;SDS011;10774;42.178;26.578;2022-11-21T10:57:37;11.85;;;2.15;;
21233;SDS011;10774;42.178;26.578;2022-11-21T11:00:24;9.95;;;2.20;;
21233;SDS011;10774;42.178;26.578;2022-11-21T11:05:26;8.73;;;2.15;;
21233;SDS011;10774;42.178;26.578;2022-11-21T11:10:27;8.48;;;1.52;;
21233;SDS011;10774;42.178;26.578;2022-11-21T11:12:54;10.18;;;1.40;;
21233;SDS011;10774;42.178;26.578;2022-11-21T11:15:53;7.22;;;1.48;;
21233;SDS011;10774;42.178;26.578;2022-11-21T11:18:22;5.95;;;1.33;;
21233;SDS011;10774;42.178;26.578;2022-11-21T11:20:48;8.45;;;1.83;;
21233;SDS011;10774;42.178;26.578;2022-11-21T11:25:50;4.13;;;0.70;;
21233;SDS011;10774;42.178;26.578;2022-11-21T11:28:20;11.50;;;1.40;;
21233;SDS011;10774;42.178;26.578;2022-11-21T11:30:50;9.75;;;1.00;;
21233;SDS011;10774;42.178;26.578;2022-11-21T11:38:54;6.53;;;1.33;;
21233;SDS011;10774;42.178;26.578;2022-11-21T11:44:57;4.78;;;0.90;;
21233;SDS011;10774;42.178;26.578;2022-11-21T11:48:00;5.05;;;1.38;;
21233;SDS011;10774;42.178;26.578;2022-11-21T11:50:33;3.97;;;0.93;;
21233;SDS011;10774;42.178;26.578;2022-11-21T11:53:19;8.23;;;1.97;;
21233;SDS011;10774;42.178;26.578;2022-11-21T12:01:24;6.25;;;1.90;;
21233;SDS011;10774;42.178;26.578;2022-11-21T12:07:05;6.63;;;1.05;;
21233;SDS011;10774;42.178;26.578;2022-11-21T12:09:19;6.88;;;1.27;;
21233;SDS011;10774;42.178;26.578;2022-11-21T12:14:48;7.35;;;1.48;;
21233;SDS011;10774;42.178;26.578;2022-11-21T12:20:24;4.68;;;0.70;;
21233;SDS011;10774;42.178;26.578;2022-11-21T12:22:54;5.47;;;1.15;;
21233;SDS011;10774;42.178;26.578;2022-11-21T12:25:23;6.10;;;1.23;;
21233;SDS011;10774;42.178;26.578;2022-11-21T12:27:54;10.20;;;2.40;;
21233;SDS011;10774;42.178;26.578;2022-11-21T12:33:04;6.18;;;1.58;;
21233;SDS011;10774;42.178;26.578;2022-11-21T12:56:46;7.03;;;1.13;;
21233;SDS011;10774;42.178;26.578;2022-11-21T12:59:15;8.00;;;1.45;;
21233;SDS011;10774;42.178;26.578;2022-11-21T13:04:16;12.32;;;1.55;;
21233;SDS011;10774;42.178;26.578;2022-11-21T13:06:47;4.57;;;1.13;;
21233;SDS011;10774;42.178;26.578;2022-11-21T13:09:15;5.25;;;1.33;;
21233;SDS011;10774;42.178;26.578;2022-11-21T13:11:59;8.27;;;1.50;;
21233;SDS011;10774;42.178;26.578;2022-11-21T13:33:57;5.95;;;2.33;;
21233;SDS011;10774;42.178;26.578;2022-11-21T13:38:29;6.60;;;2.10;;
21233;SDS011;10774;42.178;26.578;2022-11-21T13:40:56;6.03;;;1.90;;
21233;SDS011;10774;42.178;26.578;2022-11-21T13:43:40;5.75;;;1.75;;
21233;SDS011;10774;42.178;26.578;2022-11-21T13:46:06;6.13;;;1.77;;
21233;SDS011;10774;42.178;26.578;2022-11-21T13:51:50;3.67;;;1.30;;
21233;SDS011;10774;42.178;26.578;2022-11-21T13:57:26;4.78;;;1.20;;
21233;SDS011;10774;42.178;26.578;2022-11-21T14:05:29;2.88;;;1.00;;
21233;SDS011;10774;42.178;26.578;2022-11-21T14:08:10;3.13;;;0.98;;
21233;SDS011;10774;42.178;26.578;2022-11-21T14:10:38;8.10;;;2.08;;
21233;SDS011;10774;42.178;26.578;2022-11-21T14:13:03;3.88;;;1.77;;
21233;SDS011;10774;42.178;26.578;2022-11-21T14:18:29;7.45;;;4.50;;
21233;SDS011;10774;42.178;26.578;2022-11-21T14:20:56;8.70;;;2.33;;
21233;SDS011;10774;42.178;26.578;2022-11-21T14:23:25;6.47;;;2.90;;
21233;SDS011;10774;42.178;26.578;2022-11-21T14:28:38;6.53;;;2.13;;
21233;SDS011;10774;42.178;26.578;2022-11-21T14:31:05;5.57;;;2.75;;
21233;SDS011;10774;42.178;26.578;2022-11-21T14:33:32;3.75;;;2.10;;
21233;SDS011;10774;42.178;26.578;2022-11-21T14:38:52;3.22;;;1.17;;
21233;SDS011;10774;42.178;26.578;2022-11-21T14:46:21;3.58;;;1.55;;
21233;SDS011;10774;42.178;26.578;2022-11-21T14:48:46;4.80;;;1.80;;
21233;SDS011;10774;42.178;26.578;2022-11-21T14:51:15;2.85;;;1.70;;
21233;SDS011;10774;42.178;26.578;2022-11-21T14:53:43;4.93;;;1.45;;
21233;SDS011;10774;42.178;26.578;2022-11-21T14:56:11;4.45;;;1.70;;
21233;SDS011;10774;42.178;26.578;2022-11-21T14:58:46;2.00;;;0.80;;
21233;SDS011;10774;42.178;26.578;2022-11-21T15:01:19;1.75;;;0.82;;
21233;SDS011;10774;42.178;26.578;2022-11-21T15:04:05;1.40;;;1.00;;
21233;SDS011;10774;42.178;26.578;2022-11-21T15:06:40;3.17;;;1.35;;
21233;SDS011;10774;42.178;26.578;2022-11-21T15:09:12;3.70;;;1.30;;
21233;SDS011;10774;42.178;26.578;2022-11-21T15:11:40;2.95;;;1.10;;
21233;SDS011;10774;42.178;26.578;2022-11-21T15:14:18;4.47;;;1.92;;
21233;SDS011;10774;42.178;26.578;2022-11-21T15:16:52;4.18;;;2.40;;
21233;SDS011;10774;42.178;26.578;2022-11-21T15:19:25;7.43;;;2.78;;
21233;SDS011;10774;42.178;26.578;2022-11-21T15:21:53;5.13;;;2.97;;
21233;SDS011;10774;42.178;26.578;2022-11-21T15:24:28;8.05;;;3.63;;
21233;SDS011;10774;42.178;26.578;2022-11-21T15:26:54;5.97;;;3.50;;
21233;SDS011;10774;42.178;26.578;2022-11-21T15:29:20;5.43;;;1.90;;
21233;SDS011;10774;42.178;26.578;2022-11-21T15:32:07;3.42;;;2.20;;
21233;SDS011;10774;42.178;26.578;2022-11-21T15:34:34;4.28;;;2.30;;
21233;SDS011;10774;42.178;26.578;2022-11-21T15:37:04;4.55;;;1.67;;
21233;SDS011;10774;42.178;26.578;2022-11-21T15:39:40;6.13;;;2.40;;
21233;SDS011;10774;42.178;26.578;2022-11-21T15:44:59;4.60;;;1.33;;
21233;SDS011;10774;42.178;26.578;2022-11-21T15:47:25;5.50;;;2.15;;
21233;SDS011;10774;42.178;26.578;2022-11-21T15:49:52;6.93;;;3.75;;
21233;SDS011;10774;42.178;26.578;2022-11-21T15:52:18;25.20;;;14.57;;
21233;SDS011;10774;42.178;26.578;2022-11-21T15:54:44;19.08;;;9.90;;
21233;SDS011;10774;42.178;26.578;2022-11-21T15:57:10;23.10;;;13.55;;
21233;SDS011;10774;42.178;26.578;2022-11-21T15:59:35;30.15;;;18.55;;
21233;SDS011;10774;42.178;26.578;2022-11-21T16:02:01;19.75;;;9.70;;
21233;SDS011;10774;42.178;26.578;2022-11-21T16:04:26;13.27;;;6.88;;
21233;SDS011;10774;42.178;26.578;2022-11-21T16:06:52;36.38;;;19.48;;
21233;SDS011;10774;42.178;26.578;2022-11-21T16:09:18;29.23;;;17.48;;
21233;SDS011;10774;42.178;26.578;2022-11-21T16:11:43;18.23;;;11.88;;
21233;SDS011;10774;42.178;26.578;2022-11-21T16:14:13;12.20;;;6.63;;
21233;SDS011;10774;42.178;26.578;2022-11-21T16:16:43;6.47;;;2.97;;
21233;SDS011;10774;42.178;26.578;2022-11-21T16:19:09;8.23;;;2.75;;
21233;SDS011;10774;42.178;26.578;2022-11-21T16:21:36;3.97;;;1.20;;
21233;SDS011;10774;42.178;26.578;2022-11-21T16:24:01;5.43;;;1.55;;
21233;SDS011;10774;42.178;26.578;2022-11-21T16:26:27;3.88;;;1.23;;
21233;SDS011;10774;42.178;26.578;2022-11-21T16:28:56;2.05;;;0.60;;
21233;SDS011;10774;42.178;26.578;2022-11-21T16:31:25;4.90;;;1.08;;
21233;SDS011;10774;42.178;26.578;2022-11-21T16:33:51;5.97;;;1.25;;
21233;SDS011;10774;42.178;26.578;2022-11-21T16:36:35;4.13;;;0.90;;
21233;SDS011;10774;42.178;26.578;2022-11-21T16:39:01;3.60;;;1.02;;
21233;SDS011;10774;42.178;26.578;2022-11-21T16:41:26;4.57;;;1.50;;
21233;SDS011;10774;42.178;26.578;2022-11-21T16:43:53;5.00;;;1.73;;
21233;SDS011;10774;42.178;26.578;2022-11-21T16:46:20;12.82;;;4.70;;
21233;SDS011;10774;42.178;26.578;2022-11-21T16:48:47;16.95;;;6.18;;
21233;SDS011;10774;42.178;26.578;2022-11-21T16:53:43;7.88;;;4.68;;
21233;SDS011;10774;42.178;26.578;2022-11-21T16:56:10;10.30;;;6.40;;
21233;SDS011;10774;42.178;26.578;2022-11-21T16:58:36;9.40;;;5.65;;